Time;durP1;ratioP1;P1;durP2;ratioP2;P2;SDS_P1;SDS_P2;PMS_P1;PMS_P2;Temp;Humidity;BMP_temperature;BMP_pressure;BME280_temperature;BME280_humidity;BME280_pressure;Samples;Min_cycle;Max_cycle;Signal;HPM_P1;HPM_P2
2023/12/03 00:01:37;;;;;;;48.27;23.63;;;;;;;6.05;100.00;98836.95;125255;1099;101830;-77
2023/12/03 00:04:08;;;;;;;49.63;22.93;;;;;;;6.04;100.00;98845.59;124765;1099;104178;-78
2023/12/03 00:06:40;;;;;;;61.35;23.45;;;;;;;6.04;100.00;98846.46;125260;1099;102090;-77
2023/12/03 00:09:12;;;;;;;45.23;22.67;;;;;;;6.04;100.00;98842.98;125319;1099;107602;-77
2023/12/03 00:11:44;;;;;;;43.30;22.90;;;;;;;6.01;100.00;98848.98;125219;1099;102330;-77
2023/12/03 00:14:15;;;;;;;51.57;23.47;;;;;;;6.02;100.00;98850.75;124753;1099;101862;-78
2023/12/03 00:16:47;;;;;;;46.13;23.23;;;;;;;6.05;100.00;98852.58;125296;1099;102325;-77
2023/12/03 00:19:18;;;;;;;51.10;23.47;;;;;;;6.06;100.00;98850.02;124703;1099;118577;-77
2023/12/03 00:21:49;;;;;;;48.27;22.97;;;;;;;6.05;100.00;98858.66;125256;1099;104348;-76
2023/12/03 00:24:21;;;;;;;40.37;21.83;;;;;;;6.01;100.00;98872.42;124701;1099;101818;-78
2023/12/03 00:26:53;;;;;;;45.07;23.87;;;;;;;5.92;100.00;98886.05;124716;1098;101935;-77
2023/12/03 00:29:24;;;;;;;45.70;23.67;;;;;;;5.88;100.00;98899.80;124730;1099;101935;-77
2023/12/03 00:31:55;;;;;;;50.00;23.23;;;;;;;5.81;100.00;98907.39;125203;1099;101957;-78
2023/12/03 00:34:27;;;;;;;64.40;26.07;;;;;;;5.75;100.00;98908.98;124604;1099;101960;-77
2023/12/03 00:36:58;;;;;;;70.97;26.03;;;;;;;5.70;100.00;98928.80;125141;1098;102338;-76
2023/12/03 00:39:30;;;;;;;69.70;26.30;;;;;;;5.69;100.00;98915.73;125255;1099;104173;-76
2023/12/03 00:42:01;;;;;;;73.93;26.37;;;;;;;5.65;100.00;98917.34;125284;1099;104709;-77
2023/12/03 00:44:33;;;;;;;67.57;24.70;;;;;;;5.60;100.00;98913.73;125199;1099;104173;-77
2023/12/03 00:47:04;;;;;;;92.73;26.23;;;;;;;5.58;100.00;98915.41;125126;1099;104284;-76
2023/12/03 00:49:36;;;;;;;114.87;26.43;;;;;;;5.53;100.00;98916.97;125180;1099;104318;-77
2023/12/03 00:52:08;;;;;;;72.57;25.90;;;;;;;5.49;100.00;98928.14;125199;1099;104259;-77
2023/12/03 00:54:39;;;;;;;99.37;26.00;;;;;;;5.44;100.00;98937.50;125237;1099;104308;-77
2023/12/03 00:57:10;;;;;;;72.50;26.00;;;;;;;5.39;100.00;98946.06;125207;1099;101906;-77
2023/12/03 00:59:43;;;;;;;82.50;25.20;;;;;;;5.35;100.00;98972.80;125278;1099;102134;-77
2023/12/03 01:02:14;;;;;;;70.30;25.10;;;;;;;5.32;100.00;99019.52;124599;1099;101912;-77
2023/12/03 01:04:46;;;;;;;43.33;24.03;;;;;;;5.25;100.00;99038.38;125052;1099;104256;-76
2023/12/03 01:07:17;;;;;;;65.40;26.00;;;;;;;5.21;100.00;99054.70;125141;1099;101865;-77
2023/12/03 01:09:49;;;;;;;57.67;26.80;;;;;;;5.14;100.00;99060.52;125119;1098;102074;-76
2023/12/03 01:12:20;;;;;;;55.53;24.63;;;;;;;5.11;100.00;99063.02;125006;1099;102490;-78
2023/12/03 01:14:52;;;;;;;48.83;24.83;;;;;;;5.10;100.00;99092.47;124503;1099;104178;-76
2023/12/03 01:17:23;;;;;;;50.93;24.57;;;;;;;5.08;100.00;99096.70;125019;1099;101890;-77
2023/12/03 01:19:55;;;;;;;47.53;23.53;;;;;;;5.10;100.00;99103.73;125026;1099;102070;-76
2023/12/03 01:22:26;;;;;;;52.70;23.47;;;;;;;5.08;100.00;99101.91;124617;1099;102560;-77
2023/12/03 01:24:57;;;;;;;48.17;23.27;;;;;;;5.11;100.00;99102.02;124984;1099;104153;-77
2023/12/03 01:27:29;;;;;;;49.23;23.47;;;;;;;5.12;100.00;99108.99;125188;1099;104176;-77
2023/12/03 01:30:00;;;;;;;46.60;23.27;;;;;;;5.11;100.00;99102.92;124861;1099;101923;-78
2023/12/03 01:32:32;;;;;;;47.87;22.67;;;;;;;5.12;100.00;99111.59;124683;1099;104201;-76
2023/12/03 01:35:04;;;;;;;47.70;23.83;;;;;;;5.13;100.00;99108.17;124733;1099;101957;-78
2023/12/03 01:37:35;;;;;;;45.63;22.40;;;;;;;5.12;100.00;99109.87;124648;1099;104401;-78
2023/12/03 01:40:09;;;;;;;42.47;22.23;;;;;;;5.13;100.00;99124.65;125076;1099;104181;-76
2023/12/03 01:42:41;;;;;;;43.35;21.75;;;;;;;5.11;100.00;99125.41;124791;1099;104220;-77
2023/12/03 01:45:13;;;;;;;41.03;22.17;;;;;;;5.10;100.00;99108.06;125289;1099;101887;-77
2023/12/03 01:47:44;;;;;;;43.80;22.27;;;;;;;5.07;100.00;99110.55;125200;1099;102025;-77
2023/12/03 01:50:16;;;;;;;39.90;20.77;;;;;;;5.06;100.00;99125.25;125080;1099;104272;-77
2023/12/03 01:52:48;;;;;;;39.40;20.73;;;;;;;5.07;100.00;99123.55;125088;1098;104329;-77
2023/12/03 01:55:20;;;;;;;39.25;20.40;;;;;;;5.06;100.00;99129.58;125219;1099;104166;-77
2023/12/03 01:57:51;;;;;;;39.13;20.00;;;;;;;5.04;100.00;99132.13;124702;1099;104261;-77
2023/12/03 02:00:23;;;;;;;39.33;20.17;;;;;;;5.03;100.00;99128.65;125180;1099;101958;-77
2023/12/03 02:02:54;;;;;;;38.13;19.53;;;;;;;5.01;100.00;99127.69;124631;1099;102415;-77
2023/12/03 02:05:26;;;;;;;38.33;19.93;;;;;;;5.00;100.00;99123.34;125182;1099;104175;-78
2023/12/03 02:07:57;;;;;;;34.23;18.93;;;;;;;4.99;100.00;99126.75;125185;1099;104242;-78
2023/12/03 02:10:29;;;;;;;34.73;19.00;;;;;;;4.99;100.00;99131.95;125115;1099;101766;-77
2023/12/03 02:13:00;;;;;;;39.83;19.40;;;;;;;4.98;100.00;99130.17;124633;1099;101955;-76
2023/12/03 02:15:32;;;;;;;34.73;19.13;;;;;;;4.97;100.00;99130.13;125144;1099;101908;-77
2023/12/03 02:18:03;;;;;;;36.80;19.30;;;;;;;4.95;100.00;99136.98;124717;1099;102169;-77
2023/12/03 02:20:35;;;;;;;35.97;18.83;;;;;;;4.96;100.00;99146.57;125050;1099;104194;-77
2023/12/03 02:23:06;;;;;;;33.07;18.13;;;;;;;4.94;100.00;99149.11;124682;1102;104169;-77
2023/12/03 02:25:38;;;;;;;34.93;18.60;;;;;;;4.95;100.00;99161.26;125133;1099;104437;-78
2023/12/03 02:28:09;;;;;;;35.50;19.17;;;;;;;4.99;100.00;99159.68;124642;1102;104230;-77
2023/12/03 02:30:41;;;;;;;36.03;19.37;;;;;;;5.02;100.00;99154.59;125103;1099;104182;-77
2023/12/03 02:33:12;;;;;;;34.17;17.93;;;;;;;4.99;100.00;99147.55;124694;1099;104145;-78
2023/12/03 02:35:44;;;;;;;34.67;18.83;;;;;;;4.97;100.00;99136.22;125242;1099;102207;-77
2023/12/03 02:38:15;;;;;;;35.23;19.30;;;;;;;4.98;100.00;99129.30;124621;1099;104210;-77
2023/12/03 02:40:47;;;;;;;33.20;18.15;;;;;;;5.01;100.00;99132.89;125167;1099;104271;-77
2023/12/03 02:43:18;;;;;;;34.87;19.50;;;;;;;5.07;100.00;99142.63;125258;1099;104220;-77
2023/12/03 02:45:50;;;;;;;32.83;17.90;;;;;;;5.12;100.00;99153.20;125211;1099;104721;-77
2023/12/03 02:48:21;;;;;;;32.53;17.80;;;;;;;5.15;100.00;99148.11;125281;1099;102460;-77
2023/12/03 02:50:52;;;;;;;31.73;17.63;;;;;;;5.19;100.00;99147.39;125286;1099;102080;-77
2023/12/03 02:53:24;;;;;;;38.57;18.87;;;;;;;5.24;100.00;99143.23;125205;1099;104179;-77
2023/12/03 02:55:55;;;;;;;33.20;17.80;;;;;;;5.25;100.00;99139.81;125153;1099;104355;-78
2023/12/03 02:58:27;;;;;;;33.37;18.73;;;;;;;5.26;100.00;99144.16;125242;1099;104173;-77
2023/12/03 03:00:58;;;;;;;33.87;18.07;;;;;;;5.29;100.00;99154.67;125154;1099;103876;-77
2023/12/03 03:03:30;;;;;;;34.00;18.70;;;;;;;5.29;100.00;99161.60;124646;1099;104409;-77
2023/12/03 03:06:01;;;;;;;35.53;18.67;;;;;;;5.25;100.00;99159.71;125054;1099;104272;-77
2023/12/03 03:08:32;;;;;;;33.50;17.80;;;;;;;5.19;100.00;99165.60;124620;1099;104258;-77
2023/12/03 03:11:04;;;;;;;34.37;18.73;;;;;;;5.15;100.00;99187.11;125040;1099;104169;-77
2023/12/03 03:13:35;;;;;;;33.70;19.00;;;;;;;5.12;100.00;99192.20;125012;1099;101880;-77
2023/12/03 03:16:08;;;;;;;35.43;18.57;;;;;;;5.07;100.00;99197.23;124675;1099;104408;-77
2023/12/03 03:18:39;;;;;;;33.37;18.03;;;;;;;5.08;100.00;99200.70;125178;1099;102031;-78
2023/12/03 03:21:11;;;;;;;33.33;18.83;;;;;;;5.08;100.00;99211.11;124596;1099;104239;-78
2023/12/03 03:23:43;;;;;;;35.27;19.33;;;;;;;5.06;100.00;99220.58;124605;1099;104175;-78
2023/12/03 03:26:14;;;;;;;33.17;17.93;;;;;;;5.06;100.00;99204.98;124753;1099;104243;-77
2023/12/03 03:28:46;;;;;;;33.30;18.30;;;;;;;5.07;100.00;99210.23;124722;1102;104326;-78
2023/12/03 03:31:17;;;;;;;33.23;18.20;;;;;;;5.13;100.00;99205.27;125104;1098;104070;-77
2023/12/03 03:33:49;;;;;;;36.75;18.55;;;;;;;5.14;100.00;99217.45;125268;1099;102043;-78
2023/12/03 03:36:20;;;;;;;34.27;19.70;;;;;;;5.17;100.00;99229.66;124700;1099;101925;-76
2023/12/03 03:38:53;;;;;;;33.40;18.65;;;;;;;5.20;100.00;99234.97;125196;1099;101810;-78
2023/12/03 03:41:24;;;;;;;32.37;18.77;;;;;;;5.24;100.00;99239.47;125189;1099;102785;-77
2023/12/03 03:43:55;;;;;;;31.23;18.17;;;;;;;5.28;100.00;99256.05;125148;1099;104206;-78
2023/12/03 03:46:27;;;;;;;31.57;17.67;;;;;;;5.30;100.00;99259.59;125150;1099;104175;-77
2023/12/03 03:48:58;;;;;;;32.63;18.50;;;;;;;5.27;100.00;99262.98;125255;1099;104210;-77
2023/12/03 03:51:30;;;;;;;33.87;19.07;;;;;;;5.26;100.00;99260.33;125152;1098;104242;-77
2023/12/03 03:54:01;;;;;;;35.53;18.17;;;;;;;5.29;100.00;99261.31;125177;1099;104248;-77
2023/12/03 03:56:33;;;;;;;31.33;17.60;;;;;;;5.32;100.00;99260.55;125129;1099;102096;-77
2023/12/03 03:59:04;;;;;;;31.40;18.57;;;;;;;5.30;100.00;99270.91;125201;1099;104252;-77
2023/12/03 04:01:41;;;;;;;32.73;17.63;;;;;;;5.28;100.00;99275.14;124694;1102;104436;-78
2023/12/03 04:04:13;;;;;;;34.23;19.00;;;;;;;5.31;100.00;99284.78;125192;1098;102338;-77
2023/12/03 04:06:46;;;;;;;32.40;18.33;;;;;;;5.34;100.00;99287.50;125195;1099;104287;-78
2023/12/03 04:09:17;;;;;;;33.43;19.50;;;;;;;5.32;100.00;99287.44;125102;1099;102182;-77
2023/12/03 04:11:49;;;;;;;34.03;18.57;;;;;;;5.32;100.00;99289.16;125239;1099;104245;-77
2023/12/03 04:14:21;;;;;;;36.13;18.83;;;;;;;5.31;100.00;99295.19;124701;1099;101869;-78
2023/12/03 04:16:52;;;;;;;34.07;18.53;;;;;;;5.32;100.00;99297.84;124707;1099;104172;-78
2023/12/03 04:19:23;;;;;;;31.70;18.47;;;;;;;5.32;100.00;99300.45;124642;1098;102083;-77
2023/12/03 04:21:55;;;;;;;32.27;18.37;;;;;;;5.31;100.00;99300.39;125123;1099;101922;-77
2023/12/03 04:24:26;;;;;;;34.47;19.30;;;;;;;5.31;100.00;99306.47;124721;1099;104166;-78
2023/12/03 04:26:58;;;;;;;32.03;18.33;;;;;;;5.33;100.00;99309.13;124755;1099;104335;-77
2023/12/03 04:29:29;;;;;;;33.60;18.63;;;;;;;5.32;100.00;99310.85;124636;1099;104172;-78
2023/12/03 04:32:00;;;;;;;33.60;18.40;;;;;;;5.31;100.00;99314.27;125116;1099;104273;-76
2023/12/03 04:34:32;;;;;;;35.67;18.67;;;;;;;5.30;100.00;99307.31;125200;1099;107113;-77
2023/12/03 04:37:04;;;;;;;34.37;18.67;;;;;;;5.30;100.00;99309.92;125198;1099;104757;-77
2023/12/03 04:39:35;;;;;;;32.77;18.80;;;;;;;5.29;100.00;99310.73;125178;1099;104224;-77
2023/12/03 04:42:08;;;;;;;34.47;18.33;;;;;;;5.24;100.00;99330.49;125087;1099;104300;-77
2023/12/03 04:44:40;;;;;;;34.13;18.87;;;;;;;5.13;100.00;99348.28;124914;1099;104281;-77
2023/12/03 04:47:13;;;;;;;35.13;19.47;;;;;;;5.02;100.00;99350.46;125080;1099;104399;-77
2023/12/03 04:49:44;;;;;;;34.60;18.87;;;;;;;4.97;100.00;99352.00;125065;1099;104220;-77
2023/12/03 04:52:16;;;;;;;32.63;18.47;;;;;;;4.98;100.00;99343.36;124659;1099;101945;-77
2023/12/03 04:54:47;;;;;;;32.20;18.15;;;;;;;4.99;100.00;99347.74;124609;1099;104204;-78
2023/12/03 04:57:19;;;;;;;33.73;18.90;;;;;;;5.02;100.00;99357.39;125101;1099;101916;-77
2023/12/03 04:59:50;;;;;;;34.10;18.47;;;;;;;5.02;100.00;99355.66;125075;1099;104063;-77
2023/12/03 05:02:21;;;;;;;34.47;19.57;;;;;;;5.07;100.00;99362.77;124749;1099;104233;-77
2023/12/03 05:04:53;;;;;;;33.83;19.37;;;;;;;5.08;100.00;99361.92;125180;1099;102451;-77
2023/12/03 05:07:24;;;;;;;34.97;19.33;;;;;;;5.10;100.00;99360.29;125229;1099;104176;-77
2023/12/03 05:09:56;;;;;;;33.67;18.77;;;;;;;5.10;100.00;99365.49;125201;1099;104220;-77
2023/12/03 05:12:27;;;;;;;34.33;19.27;;;;;;;5.08;100.00;99369.72;124761;1099;104188;-77
2023/12/03 05:14:59;;;;;;;33.90;19.00;;;;;;;5.08;100.00;99383.63;125293;1099;104245;-76
2023/12/03 05:17:30;;;;;;;36.50;19.73;;;;;;;5.08;100.00;99385.33;125245;1099;102254;-77
2023/12/03 05:20:01;;;;;;;33.43;18.53;;;;;;;5.10;100.00;99401.89;125138;1099;104141;-77
2023/12/03 05:22:33;;;;;;;32.43;18.57;;;;;;;5.12;100.00;99405.44;125191;1099;101889;-76
2023/12/03 05:25:05;;;;;;;34.80;20.10;;;;;;;5.15;100.00;99401.23;124635;1099;104137;-77
2023/12/03 05:27:37;;;;;;;36.10;19.97;;;;;;;5.18;100.00;99403.95;125170;1099;104239;-77
2023/12/03 05:30:11;;;;;;;31.17;18.17;;;;;;;5.20;100.00;99402.33;124758;1099;104179;-77
2023/12/03 05:32:42;;;;;;;;;;;;;;;5.19;100.00;99417.87;125261;1099;101816;-78
2023/12/03 05:35:13;;;;;;;36.80;19.70;;;;;;;5.14;100.00;99416.77;125128;1099;104169;-78
2023/12/03 05:37:45;;;;;;;32.73;18.47;;;;;;;5.15;100.00;99418.56;125055;1099;104277;-77
2023/12/03 05:40:16;;;;;;;32.83;18.27;;;;;;;5.14;100.00;99428.09;124639;1099;104063;-78
2023/12/03 05:42:48;;;;;;;36.23;19.67;;;;;;;5.12;100.00;99439.23;124639;1099;101897;-77
2023/12/03 05:45:20;;;;;;;32.27;17.93;;;;;;;5.13;100.00;99451.42;124904;1099;102243;-77
2023/12/03 05:47:51;;;;;;;36.17;18.87;;;;;;;5.13;100.00;99457.50;124875;1099;104290;-77
2023/12/03 05:50:22;;;;;;;34.57;18.73;;;;;;;5.13;100.00;99451.42;124470;1099;104399;-76
2023/12/03 05:52:54;;;;;;;33.47;18.63;;;;;;;5.13;100.00;99467.03;124770;1099;104175;-76
2023/12/03 05:55:25;;;;;;;34.73;20.40;;;;;;;5.15;100.00;99466.25;124678;1099;101906;-77
2023/12/03 05:57:57;;;;;;;34.43;19.33;;;;;;;5.18;100.00;99476.77;125230;1098;104239;-77
2023/12/03 06:00:29;;;;;;;34.60;18.55;;;;;;;5.18;100.00;99475.89;124800;1099;104173;-77
2023/12/03 06:03:00;;;;;;;31.60;18.17;;;;;;;5.18;100.00;99486.30;124870;1099;104169;-77
2023/12/03 06:05:32;;;;;;;33.87;19.37;;;;;;;5.20;100.00;99495.05;124652;1099;104253;-77
2023/12/03 06:08:03;;;;;;;35.03;18.80;;;;;;;5.22;100.00;99512.50;124531;1102;102385;-77
2023/12/03 06:10:35;;;;;;;42.20;22.15;;;;;;;5.17;100.00;99523.52;124578;1099;101932;-77
2023/12/03 06:13:06;;;;;;;39.23;21.80;;;;;;;5.12;100.00;99523.33;124651;1099;104169;-77
2023/12/03 06:15:38;;;;;;;44.93;24.03;;;;;;;5.10;100.00;99539.72;124940;1099;104242;-77
2023/12/03 06:18:09;;;;;;;47.30;25.90;;;;;;;5.07;100.00;99555.19;124737;1100;104278;-77
2023/12/03 06:20:40;;;;;;;44.30;24.77;;;;;;;5.00;100.00;99575.73;125182;1099;104172;-77
2023/12/03 06:23:14;;;;;;;42.87;25.10;;;;;;;4.94;100.00;99596.26;124535;1099;104227;-78
2023/12/03 06:25:45;;;;;;;52.03;25.83;;;;;;;4.89;100.00;99617.66;124932;1099;104166;-76
2023/12/03 06:28:17;;;;;;;45.97;24.00;;;;;;;4.86;100.00;99608.01;124529;1099;102116;-78
2023/12/03 06:30:48;;;;;;;49.80;25.37;;;;;;;4.91;100.00;99639.41;124969;1099;104207;-76
2023/12/03 06:33:20;;;;;;;46.23;23.27;;;;;;;4.93;100.00;99635.19;125125;1099;104184;-77
2023/12/03 06:35:52;;;;;;;43.97;23.13;;;;;;;4.98;100.00;99657.07;124655;1099;102454;-78
2023/12/03 06:38:23;;;;;;;41.37;23.50;;;;;;;4.99;100.00;99670.14;124933;1099;102161;-76
2023/12/03 06:40:55;;;;;;;39.75;21.05;;;;;;;5.03;100.00;99676.36;124399;1102;102002;-75
2023/12/03 06:43:26;;;;;;;45.00;22.30;;;;;;;5.04;100.00;99681.63;124369;1099;104233;-77
2023/12/03 06:45:58;;;;;;;39.33;21.20;;;;;;;5.07;100.00;99696.48;124459;1099;104303;-77
2023/12/03 06:48:30;;;;;;;42.53;21.10;;;;;;;5.13;100.00;99695.88;125016;1099;101833;-77
2023/12/03 06:51:01;;;;;;;43.37;20.47;;;;;;;5.19;100.00;99706.56;125012;1099;104251;-77
2023/12/03 06:53:33;;;;;;;42.40;18.67;;;;;;;5.25;100.00;99711.13;125013;1099;104197;-77
2023/12/03 06:56:05;;;;;;;37.47;18.83;;;;;;;5.29;100.00;99721.73;125034;1099;104207;-76
2023/12/03 06:58:37;;;;;;;40.77;18.50;;;;;;;5.33;100.00;99723.66;125158;1099;102023;-77
2023/12/03 07:01:09;;;;;;;36.37;17.50;;;;;;;5.39;100.00;99743.83;125065;1099;104169;-76
2023/12/03 07:03:43;;;;;;;38.70;16.47;;;;;;;5.44;100.00;99742.34;124688;1099;101958;-77
2023/12/03 07:06:17;;;;;;;34.87;17.37;;;;;;;5.50;100.00;99760.83;124979;1099;104176;-77
2023/12/03 07:08:48;;;;;;;34.30;15.73;;;;;;;5.56;100.00;99781.92;124537;1098;101912;-78
2023/12/03 07:11:20;;;;;;;36.37;16.50;;;;;;;5.61;100.00;99789.94;125002;1099;101836;-77
2023/12/03 07:13:51;;;;;;;31.37;15.70;;;;;;;5.69;100.00;99805.89;125103;1099;104171;-76
2023/12/03 07:16:23;;;;;;;28.23;14.13;;;;;;;5.75;100.00;99814.85;125012;1099;102202;-76
2023/12/03 07:18:55;;;;;;;26.67;13.77;;;;;;;5.81;100.00;99814.20;125079;1099;104047;-75
2023/12/03 07:21:26;;;;;;;28.70;13.23;;;;;;;5.84;100.00;99824.75;125060;1098;104092;-77
2023/12/03 07:23:58;;;;;;;25.90;12.37;;;;;;;5.87;100.00;99826.62;125004;1099;102270;-77
2023/12/03 07:26:29;;;;;;;25.77;12.70;;;;;;;5.91;100.00;99833.75;125133;1099;101772;-77
2023/12/03 07:29:00;;;;;;;27.67;12.57;;;;;;;5.91;100.00;99845.05;125152;1099;102394;-77
2023/12/03 07:31:32;;;;;;;26.87;12.43;;;;;;;5.95;100.00;99851.27;125012;1098;104272;-77
2023/12/03 07:34:03;;;;;;;25.90;11.17;;;;;;;5.99;100.00;99858.44;124589;1099;101991;-76
2023/12/03 07:36:35;;;;;;;26.10;11.83;;;;;;;6.07;100.00;99861.38;124650;1099;104172;-78
2023/12/03 07:39:06;;;;;;;25.63;12.27;;;;;;;6.16;100.00;99866.98;125094;1099;104255;-78
2023/12/03 07:41:38;;;;;;;28.50;11.97;;;;;;;6.22;100.00;99869.86;125027;1099;104187;-76
2023/12/03 07:44:09;;;;;;;24.53;11.20;;;;;;;6.27;100.00;99883.08;124949;1099;102064;-77
2023/12/03 07:46:41;;;;;;;25.97;10.73;;;;;;;6.34;100.00;99882.50;124490;1099;104185;-76
2023/12/03 07:49:13;;;;;;;21.87;10.07;;;;;;;6.38;100.00;99893.97;124541;1099;104243;-77
2023/12/03 07:51:46;;;;;;;23.20;10.23;;;;;;;6.42;100.00;99904.59;125197;1098;104288;-76
2023/12/03 07:54:17;;;;;;;23.63;10.53;;;;;;;6.44;100.00;99913.35;125149;1099;104211;-77
2023/12/03 07:56:49;;;;;;;20.33;9.73;;;;;;;6.52;100.00;99916.29;124975;1098;102356;-78
2023/12/03 07:59:20;;;;;;;21.87;9.33;;;;;;;6.63;100.00;99921.95;125134;1099;104208;-78
2023/12/03 08:01:52;;;;;;;18.27;8.27;;;;;;;6.71;100.00;99925.77;125189;1099;101942;-77
2023/12/03 08:04:23;;;;;;;18.13;8.10;;;;;;;6.77;100.00;99928.63;125132;1099;104189;-77
2023/12/03 08:06:56;;;;;;;20.07;7.63;;;;;;;6.82;100.00;99932.34;125204;1099;102040;-77
2023/12/03 08:09:27;;;;;;;17.93;7.83;;;;;;;6.87;99.95;99936.84;125139;1099;101977;-77
2023/12/03 08:12:02;;;;;;;16.87;7.13;;;;;;;6.88;97.79;99959.50;125081;1099;104144;-77
2023/12/03 08:14:33;;;;;;;16.87;7.23;;;;;;;6.87;97.56;99962.92;124896;1099;101839;-76
2023/12/03 08:17:07;;;;;;;15.60;6.90;;;;;;;6.79;95.91;99968.73;125187;1099;101929;-76
2023/12/03 08:19:38;;;;;;;17.65;7.22;;;;;;;6.80;96.93;99965.27;124550;1099;104277;-77
2023/12/03 08:22:10;;;;;;;13.53;6.33;;;;;;;6.82;96.61;99963.64;124608;1098;104226;-76
2023/12/03 08:24:42;;;;;;;14.77;5.93;;;;;;;6.81;94.69;99961.84;125153;1099;104092;-75
2023/12/03 08:27:16;;;;;;;10.73;5.27;;;;;;;6.77;93.69;99965.14;125024;1099;104191;-76
2023/12/03 08:29:47;;;;;;;13.95;5.65;;;;;;;6.68;93.13;99980.39;125005;1098;104172;-77
2023/12/03 08:32:26;;;;;;;12.90;5.90;;;;;;;6.63;92.80;99979.31;125008;1098;104185;-75
2023/12/03 08:34:58;;;;;;;12.13;5.37;;;;;;;6.63;92.92;99985.41;124588;1099;104268;-76
2023/12/03 08:37:34;;;;;;;11.40;5.35;;;;;;;6.66;92.05;100002.91;125021;1099;102791;-77
2023/12/03 08:40:09;;;;;;;;;;;;;;;6.65;91.06;100002.03;124593;1099;102475;-76
2023/12/03 08:42:45;;;;;;;12.67;5.53;;;;;;;6.55;91.07;100005.05;125018;1099;104341;-77
2023/12/03 08:45:19;;;;;;;15.03;5.57;;;;;;;6.52;91.55;100004.91;124618;1099;104194;-77
2023/12/03 08:47:50;;;;;;;;;;;;;;;6.46;89.83;99999.43;124994;1099;104189;-76
2023/12/03 08:50:27;;;;;;;11.00;4.77;;;;;;;6.42;90.40;100002.71;124527;1099;104695;-76
2023/12/03 08:53:01;;;;;;;11.43;5.30;;;;;;;6.33;88.60;100018.85;124981;1099;104210;-76
2023/12/03 08:55:33;;;;;;;11.10;5.20;;;;;;;6.24;88.96;100026.25;124569;1099;104237;-76
2023/12/03 08:58:04;;;;;;;11.00;4.63;;;;;;;6.17;87.69;100038.12;124640;1099;104220;-76
2023/12/03 09:00:38;;;;;;;11.40;5.20;;;;;;;6.13;88.66;100036.18;124486;1099;104156;-76
2023/12/03 09:03:10;;;;;;;13.10;4.72;;;;;;;6.08;88.19;100042.90;124961;1099;104208;-76
2023/12/03 09:05:42;;;;;;;14.10;5.43;;;;;;;6.07;88.88;100036.77;124648;1099;104110;-77
2023/12/03 09:08:13;;;;;;;13.37;5.30;;;;;;;6.13;89.58;100036.18;125062;1099;101894;-78
2023/12/03 09:10:45;;;;;;;11.17;5.27;;;;;;;6.14;87.35;100026.64;124987;1099;102702;-78
2023/12/03 09:13:16;;;;;;;11.50;5.10;;;;;;;6.10;88.14;99996.97;125061;1099;102022;-76
2023/12/03 09:15:48;;;;;;;13.70;5.07;;;;;;;6.11;88.26;99989.22;125079;1099;102122;-78
2023/12/03 09:18:20;;;;;;;15.60;5.77;;;;;;;6.14;86.07;100026.64;124995;1099;104179;-76
2023/12/03 09:20:52;;;;;;;16.90;6.17;;;;;;;6.08;84.84;100046.39;125036;1099;104252;-76
2023/12/03 09:23:25;;;;;;;13.13;5.47;;;;;;;6.04;86.64;100053.98;125023;1098;101963;-78
2023/12/03 09:25:56;;;;;;;12.63;5.67;;;;;;;6.00;84.85;100052.96;124508;1099;104166;-75
2023/12/03 09:28:30;;;;;;;14.57;6.03;;;;;;;5.97;85.62;100055.42;125161;1099;101820;-76
2023/12/03 09:31:01;;;;;;;15.03;6.27;;;;;;;5.89;84.55;100056.72;125060;1098;104204;-77
2023/12/03 09:33:33;;;;;;;19.80;7.30;;;;;;;5.83;81.09;100064.23;124627;1098;104193;-77
2023/12/03 09:36:05;;;;;;;17.40;6.50;;;;;;;5.70;78.46;100071.48;124900;1099;102019;-76
2023/12/03 09:38:36;;;;;;;16.73;7.10;;;;;;;5.58;78.63;100082.19;124882;1099;101805;-77
2023/12/03 09:41:13;;;;;;;14.83;6.63;;;;;;;5.51;78.92;100094.81;125068;1099;104194;-76
2023/12/03 09:43:52;;;;;;;18.33;7.80;;;;;;;5.46;79.62;100112.80;125085;1099;102087;-77
2023/12/03 09:46:26;;;;;;;19.67;7.20;;;;;;;5.44;77.50;100108.33;125110;1098;102079;-76
2023/12/03 09:49:01;;;;;;;17.17;7.70;;;;;;;5.36;75.15;100124.47;124947;1099;102569;-76
2023/12/03 09:51:34;;;;;;;18.03;7.27;;;;;;;5.30;76.33;100123.24;124530;1099;104144;-76
2023/12/03 09:54:08;;;;;;;15.97;7.47;;;;;;;5.25;77.10;100111.72;124753;1099;104332;-78
2023/12/03 09:56:42;;;;;;;19.83;7.00;;;;;;;5.22;77.86;100109.88;124804;1099;104226;-76
2023/12/03 09:59:13;;;;;;;;;;;;;;;5.23;78.20;100101.23;124847;1099;104376;-77
2023/12/03 10:01:45;;;;;;;16.13;6.80;;;;;;;5.19;78.73;100101.92;125080;1099;104204;-76
2023/12/03 10:04:16;;;;;;;17.63;7.37;;;;;;;5.18;78.28;100100.12;124599;1099;102381;-76
2023/12/03 10:06:51;;;;;;;17.07;7.27;;;;;;;5.18;78.36;100105.33;125011;1098;104281;-76
2023/12/03 10:09:20;;;;;;;;;;;;;;;5.19;77.09;100109.73;124508;1099;102236;-75
2023/12/03 10:11:56;;;;;;;17.03;6.70;;;;;;;5.13;75.47;100118.09;124573;1099;102957;-76
2023/12/03 10:14:29;;;;;;;19.10;7.03;;;;;;;5.10;77.25;100111.86;124996;1099;101984;-77
2023/12/03 10:17:00;;;;;;;17.37;7.40;;;;;;;5.12;75.32;100121.50;124512;1099;101975;-74
2023/12/03 10:19:32;;;;;;;15.97;7.20;;;;;;;5.13;75.04;100138.91;125002;1098;104267;-75
2023/12/03 10:22:03;;;;;;;19.07;7.50;;;;;;;5.14;77.00;100157.99;125024;1099;104224;-77
2023/12/03 10:24:48;;;;;;;17.83;7.07;;;;;;;5.18;76.56;100144.34;125113;1099;104172;-76
2023/12/03 10:27:18;;;;;;;;;;;;;;;5.19;77.80;100140.94;124941;1099;104188;-76
2023/12/03 10:29:50;;;;;;;16.83;6.97;;;;;;;5.19;77.59;100143.54;124978;1099;104169;-77
2023/12/03 10:32:22;;;;;;;18.43;7.27;;;;;;;5.19;74.63;100146.14;125051;1099;101769;-75
2023/12/03 10:34:57;;;;;;;19.47;7.90;;;;;;;5.20;76.96;100151.42;124977;1099;104152;-75
2023/12/03 10:37:29;;;;;;;20.37;7.80;;;;;;;5.21;75.47;100157.51;124974;1099;101887;-76
2023/12/03 10:40:01;;;;;;;18.70;7.77;;;;;;;5.23;75.73;100158.47;124537;1099;104306;-76
2023/12/03 10:42:36;;;;;;;18.00;7.57;;;;;;;5.23;74.01;100163.67;124460;1099;101925;-76
2023/12/03 10:45:11;;;;;;;19.07;7.20;;;;;;;5.23;75.78;100161.07;124944;1099;104169;-75
2023/12/03 10:47:43;;;;;;;21.07;8.30;;;;;;;5.22;74.22;100159.30;124520;1098;104217;-75
2023/12/03 10:50:15;;;;;;;19.23;7.93;;;;;;;5.16;73.16;100167.67;125085;1099;102900;-76
2023/12/03 10:52:47;;;;;;;18.03;7.80;;;;;;;5.10;73.57;100163.88;124616;1099;104204;-76
2023/12/03 10:55:19;;;;;;;20.43;7.90;;;;;;;5.07;74.76;100172.39;124967;1099;104169;-77
2023/12/03 10:57:58;;;;;;;20.03;8.77;;;;;;;5.11;75.60;100176.04;124985;1098;104214;-77
2023/12/03 11:00:36;;;;;;;22.43;8.67;;;;;;;5.11;74.34;100171.75;124553;1099;101850;-77
2023/12/03 11:03:15;;;;;;;20.07;8.63;;;;;;;5.15;76.03;100184.08;125034;1099;104209;-76
2023/12/03 11:05:51;;;;;;;21.83;9.00;;;;;;;5.19;75.60;100187.77;124742;1099;104351;-76
2023/12/03 11:08:25;;;;;;;22.27;9.90;;;;;;;5.25;74.97;100195.89;124675;1099;102252;-76
2023/12/03 11:10:57;;;;;;;21.20;9.30;;;;;;;5.24;74.56;100206.21;124987;1099;104165;-77
2023/12/03 11:13:29;;;;;;;19.80;9.07;;;;;;;5.24;74.79;100207.09;124972;1099;104185;-76
2023/12/03 11:16:02;;;;;;;20.43;9.00;;;;;;;5.24;74.83;100204.49;125049;1099;102609;-75
2023/12/03 11:18:36;;;;;;;22.67;9.87;;;;;;;5.20;74.55;100207.73;124956;1099;104169;-77
2023/12/03 11:21:16;;;;;;;21.85;9.05;;;;;;;5.19;74.65;100208.57;124951;1099;102032;-77
2023/12/03 11:24:21;;;;;;;21.30;9.55;;;;;;;5.16;73.56;100198.00;124578;1099;104156;-77
2023/12/03 11:26:53;;;;;;;20.40;8.73;;;;;;;5.14;73.77;100212.61;124720;1099;104740;-76
2023/12/03 11:29:48;;;;;;;22.37;9.57;;;;;;;5.11;73.79;100217.66;124965;1099;104233;-77